sensor_id;sensor_type;location;lat;lon;timestamp;pressure;altitude;pressure_sealevel;temperature;humidity
17785;BME280;9016;53.582;10.062;2023-05-19T00:01:37;102784.16;;;10.68;60.36
17785;BME280;9016;53.582;10.062;2023-05-19T00:04:10;102790.75;;;10.57;60.80
17785;BME280;9016;53.582;10.062;2023-05-19T00:06:40;102773.81;;;10.58;60.95
17785;BME280;9016;53.582;10.062;2023-05-19T00:09:10;102789.22;;;10.47;61.01
17785;BME280;9016;53.582;10.062;2023-05-19T00:11:40;102797.75;;;10.59;60.19
17785;BME280;9016;53.582;10.062;2023-05-19T00:14:09;102797.75;;;10.59;60.57
17785;BME280;9016;53.582;10.062;2023-05-19T00:16:37;102794.19;;;10.60;61.13
17785;BME280;9016;53.582;10.062;2023-05-19T00:19:05;102793.22;;;10.63;61.08
17785;BME280;9016;53.582;10.062;2023-05-19T00:21:36;102791.69;;;10.54;60.95
17785;BME280;9016;53.582;10.062;2023-05-19T00:24:05;102788.72;;;10.65;60.81
17785;BME280;9016;53.582;10.062;2023-05-19T00:26:33;102787.94;;;10.61;61.15
17785;BME280;9016;53.582;10.062;2023-05-19T00:29:03;102790.66;;;10.60;61.01
17785;BME280;9016;53.582;10.062;2023-05-19T00:31:34;102780.81;;;10.62;60.86
17785;BME280;9016;53.582;10.062;2023-05-19T00:38:17;102785.81;;;10.42;61.54
17785;BME280;9016;53.582;10.062;2023-05-19T00:40:45;102777.78;;;10.43;61.32
17785;BME280;9016;53.582;10.062;2023-05-19T00:43:13;102769.09;;;10.35;61.63
17785;BME280;9016;53.582;10.062;2023-05-19T00:45:43;102770.09;;;10.31;61.67
17785;BME280;9016;53.582;10.062;2023-05-19T00:48:13;102777.06;;;10.37;61.69
17785;BME280;9016;53.582;10.062;2023-05-19T00:50:42;102774.44;;;10.35;61.68
17785;BME280;9016;53.582;10.062;2023-05-19T00:53:11;102772.56;;;10.40;61.21
17785;BME280;9016;53.582;10.062;2023-05-19T00:55:39;102767.75;;;10.53;60.87
17785;BME280;9016;53.582;10.062;2023-05-19T00:58:11;102772.19;;;10.52;61.06
17785;BME280;9016;53.582;10.062;2023-05-19T01:00:39;102769.38;;;10.58;60.59
17785;BME280;9016;53.582;10.062;2023-05-19T01:03:10;102769.06;;;10.37;61.23
17785;BME280;9016;53.582;10.062;2023-05-19T01:05:46;102768.56;;;10.23;61.59
17785;BME280;9016;53.582;10.062;2023-05-19T01:08:15;102774.00;;;10.20;62.36
17785;BME280;9016;53.582;10.062;2023-05-19T01:10:44;102773.09;;;10.19;62.61
17785;BME280;9016;53.582;10.062;2023-05-19T01:13:17;102772.94;;;10.25;61.99
17785;BME280;9016;53.582;10.062;2023-05-19T01:15:57;102772.06;;;10.25;62.16
17785;BME280;9016;53.582;10.062;2023-05-19T01:18:37;102779.75;;;10.35;62.09
17785;BME280;9016;53.582;10.062;2023-05-19T01:24:12;102781.94;;;10.21;62.09
17785;BME280;9016;53.582;10.062;2023-05-19T01:27:08;102771.38;;;10.17;62.37
17785;BME280;9016;53.582;10.062;2023-05-19T01:30:05;102779.28;;;10.21;62.96
17785;BME280;9016;53.582;10.062;2023-05-19T01:32:34;102780.31;;;10.16;62.62
17785;BME280;9016;53.582;10.062;2023-05-19T01:35:04;102777.91;;;10.05;63.42
17785;BME280;9016;53.582;10.062;2023-05-19T01:37:36;102774.25;;;10.09;62.87
17785;BME280;9016;53.582;10.062;2023-05-19T01:40:08;102780.69;;;9.99;63.52
17785;BME280;9016;53.582;10.062;2023-05-19T01:42:37;102781.78;;;9.92;64.09
17785;BME280;9016;53.582;10.062;2023-05-19T01:45:08;102781.03;;;9.85;64.40
17785;BME280;9016;53.582;10.062;2023-05-19T01:47:41;102783.66;;;9.87;64.43
17785;BME280;9016;53.582;10.062;2023-05-19T01:50:10;102787.38;;;9.80;64.67
17785;BME280;9016;53.582;10.062;2023-05-19T01:52:38;102788.13;;;9.86;64.42
17785;BME280;9016;53.582;10.062;2023-05-19T01:55:08;102790.66;;;9.91;64.32
17785;BME280;9016;53.582;10.062;2023-05-19T01:57:43;102795.28;;;9.84;64.57
17785;BME280;9016;53.582;10.062;2023-05-19T02:00:22;102797.00;;;9.85;64.14
17785;BME280;9016;53.582;10.062;2023-05-19T02:03:02;102805.56;;;9.98;64.72
17785;BME280;9016;53.582;10.062;2023-05-19T02:05:39;102810.22;;;9.90;64.74
17785;BME280;9016;53.582;10.062;2023-05-19T02:08:19;102796.16;;;9.83;65.38
17785;BME280;9016;53.582;10.062;2023-05-19T02:10:54;102793.09;;;10.00;64.94
17785;BME280;9016;53.582;10.062;2023-05-19T02:13:27;102799.09;;;10.10;64.39
17785;BME280;9016;53.582;10.062;2023-05-19T02:16:03;102793.31;;;9.91;64.58
17785;BME280;9016;53.582;10.062;2023-05-19T02:18:32;102788.69;;;9.99;64.44
17785;BME280;9016;53.582;10.062;2023-05-19T02:21:01;102791.28;;;10.02;64.59
17785;BME280;9016;53.582;10.062;2023-05-19T02:23:29;102783.06;;;10.11;64.43
17785;BME280;9016;53.582;10.062;2023-05-19T02:25:57;102785.75;;;10.11;64.39
17785;BME280;9016;53.582;10.062;2023-05-19T02:28:26;102781.34;;;10.10;64.73
17785;BME280;9016;53.582;10.062;2023-05-19T02:30:55;102775.13;;;10.08;64.86
17785;BME280;9016;53.582;10.062;2023-05-19T02:33:24;102773.50;;;10.02;64.70
17785;BME280;9016;53.582;10.062;2023-05-19T02:35:53;102772.34;;;10.14;65.07
17785;BME280;9016;53.582;10.062;2023-05-19T02:41:36;102772.91;;;10.27;64.28
17785;BME280;9016;53.582;10.062;2023-05-19T02:44:04;102774.63;;;10.28;65.16
17785;BME280;9016;53.582;10.062;2023-05-19T02:46:33;102778.19;;;10.28;64.79
17785;BME280;9016;53.582;10.062;2023-05-19T02:49:05;102770.72;;;10.41;64.22
17785;BME280;9016;53.582;10.062;2023-05-19T02:51:33;102773.44;;;10.39;64.75
17785;BME280;9016;53.582;10.062;2023-05-19T02:54:01;102776.84;;;10.46;64.74
17785;BME280;9016;53.582;10.062;2023-05-19T02:56:29;102776.78;;;10.47;64.23
17785;BME280;9016;53.582;10.062;2023-05-19T02:58:57;102765.91;;;10.55;64.07
17785;BME280;9016;53.582;10.062;2023-05-19T03:01:26;102758.91;;;10.51;64.58
17785;BME280;9016;53.582;10.062;2023-05-19T03:03:54;102770.47;;;10.51;64.65
17785;BME280;9016;53.582;10.062;2023-05-19T03:06:28;102761.41;;;10.57;64.19
17785;BME280;9016;53.582;10.062;2023-05-19T03:08:58;102755.25;;;10.55;64.72
17785;BME280;9016;53.582;10.062;2023-05-19T03:11:26;102760.84;;;10.44;65.20
17785;BME280;9016;53.582;10.062;2023-05-19T03:13:55;102756.47;;;10.43;65.05
17785;BME280;9016;53.582;10.062;2023-05-19T03:16:25;102762.78;;;10.39;65.09
17785;BME280;9016;53.582;10.062;2023-05-19T03:18:53;102761.53;;;10.52;65.04
17785;BME280;9016;53.582;10.062;2023-05-19T03:21:22;102757.94;;;10.53;64.54
17785;BME280;9016;53.582;10.062;2023-05-19T03:23:52;102758.13;;;10.47;64.90
17785;BME280;9016;53.582;10.062;2023-05-19T03:26:20;102750.91;;;10.51;64.70
17785;BME280;9016;53.582;10.062;2023-05-19T03:28:55;102748.19;;;10.52;64.39
17785;BME280;9016;53.582;10.062;2023-05-19T03:31:23;102752.66;;;10.52;64.89
17785;BME280;9016;53.582;10.062;2023-05-19T03:33:52;102748.16;;;10.54;65.24
17785;BME280;9016;53.582;10.062;2023-05-19T03:36:23;102751.50;;;10.30;65.45
17785;BME280;9016;53.582;10.062;2023-05-19T03:38:59;102752.69;;;10.20;66.24
17785;BME280;9016;53.582;10.062;2023-05-19T03:41:27;102758.66;;;10.28;65.77
17785;BME280;9016;53.582;10.062;2023-05-19T03:43:55;102761.16;;;10.34;65.44
17785;BME280;9016;53.582;10.062;2023-05-19T03:46:23;102751.38;;;10.34;66.13
17785;BME280;9016;53.582;10.062;2023-05-19T03:48:55;102763.81;;;10.34;65.87
17785;BME280;9016;53.582;10.062;2023-05-19T03:51:26;102755.88;;;10.32;66.02
17785;BME280;9016;53.582;10.062;2023-05-19T03:53:55;102755.63;;;10.41;66.25
17785;BME280;9016;53.582;10.062;2023-05-19T03:56:25;102757.13;;;10.51;65.46
17785;BME280;9016;53.582;10.062;2023-05-19T03:58:55;102767.97;;;10.45;66.14
17785;BME280;9016;53.582;10.062;2023-05-19T04:01:23;102763.25;;;10.55;65.98
17785;BME280;9016;53.582;10.062;2023-05-19T04:03:51;102761.47;;;10.54;65.88
17785;BME280;9016;53.582;10.062;2023-05-19T04:06:22;102767.66;;;10.56;65.73
17785;BME280;9016;53.582;10.062;2023-05-19T04:08:50;102768.47;;;10.58;65.76
17785;BME280;9016;53.582;10.062;2023-05-19T04:11:19;102768.13;;;10.70;65.89
17785;BME280;9016;53.582;10.062;2023-05-19T04:13:49;102771.00;;;10.93;65.26
17785;BME280;9016;53.582;10.062;2023-05-19T04:16:20;102763.91;;;10.92;65.12
17785;BME280;9016;53.582;10.062;2023-05-19T04:18:48;102766.50;;;10.95;65.03
17785;BME280;9016;53.582;10.062;2023-05-19T04:21:16;102776.63;;;11.13;65.02
17785;BME280;9016;53.582;10.062;2023-05-19T04:23:45;102768.50;;;11.18;64.57
17785;BME280;9016;53.582;10.062;2023-05-19T04:26:15;102772.91;;;11.19;64.59
17785;BME280;9016;53.582;10.062;2023-05-19T04:28:45;102779.47;;;11.36;64.09
17785;BME280;9016;53.582;10.062;2023-05-19T04:31:17;102772.03;;;11.46;63.71
17785;BME280;9016;53.582;10.062;2023-05-19T04:33:52;102775.34;;;11.54;63.50
17785;BME280;9016;53.582;10.062;2023-05-19T04:36:20;102780.59;;;11.57;63.71
17785;BME280;9016;53.582;10.062;2023-05-19T04:38:50;102771.56;;;11.61;63.62
17785;BME280;9016;53.582;10.062;2023-05-19T04:41:20;102777.66;;;11.64;62.70
17785;BME280;9016;53.582;10.062;2023-05-19T04:43:48;102777.63;;;11.67;63.69
17785;BME280;9016;53.582;10.062;2023-05-19T04:46:20;102775.16;;;11.60;63.53
17785;BME280;9016;53.582;10.062;2023-05-19T04:48:50;102777.19;;;11.52;63.42
17785;BME280;9016;53.582;10.062;2023-05-19T04:51:18;102784.19;;;11.56;63.75
17785;BME280;9016;53.582;10.062;2023-05-19T04:53:46;102772.69;;;11.81;62.87
17785;BME280;9016;53.582;10.062;2023-05-19T04:56:14;102778.66;;;11.89;62.89
17785;BME280;9016;53.582;10.062;2023-05-19T04:58:42;102773.34;;;11.88;63.07
17785;BME280;9016;53.582;10.062;2023-05-19T05:01:13;102776.78;;;11.93;63.04
17785;BME280;9016;53.582;10.062;2023-05-19T05:03:43;102779.00;;;12.05;62.39
17785;BME280;9016;53.582;10.062;2023-05-19T05:06:12;102778.31;;;12.00;62.07
17785;BME280;9016;53.582;10.062;2023-05-19T05:08:40;102774.44;;;12.09;62.64
17785;BME280;9016;53.582;10.062;2023-05-19T05:11:09;102777.56;;;12.21;62.10
17785;BME280;9016;53.582;10.062;2023-05-19T05:13:38;102770.78;;;12.11;62.92
17785;BME280;9016;53.582;10.062;2023-05-19T05:16:07;102782.31;;;12.38;61.71
17785;BME280;9016;53.582;10.062;2023-05-19T05:18:36;102786.44;;;12.22;62.29
17785;BME280;9016;53.582;10.062;2023-05-19T05:21:07;102780.69;;;12.34;61.72
17785;BME280;9016;53.582;10.062;2023-05-19T05:23:36;102782.50;;;12.33;61.73
17785;BME280;9016;53.582;10.062;2023-05-19T05:26:08;102781.34;;;12.40;61.15
17785;BME280;9016;53.582;10.062;2023-05-19T05:28:42;102785.28;;;12.30;61.68
17785;BME280;9016;53.582;10.062;2023-05-19T05:31:13;102783.47;;;12.55;61.64
17785;BME280;9016;53.582;10.062;2023-05-19T05:33:41;102779.59;;;12.64;60.73
17785;BME280;9016;53.582;10.062;2023-05-19T05:36:13;102777.63;;;12.69;61.33
17785;BME280;9016;53.582;10.062;2023-05-19T05:38:42;102782.25;;;12.88;60.35
17785;BME280;9016;53.582;10.062;2023-05-19T05:41:12;102771.38;;;13.16;59.57
17785;BME280;9016;53.582;10.062;2023-05-19T05:43:40;102779.38;;;13.39;59.09
17785;BME280;9016;53.582;10.062;2023-05-19T05:46:08;102777.13;;;13.52;58.81
17785;BME280;9016;53.582;10.062;2023-05-19T05:48:37;102775.22;;;13.54;58.43
17785;BME280;9016;53.582;10.062;2023-05-19T05:51:05;102778.53;;;13.60;57.48
17785;BME280;9016;53.582;10.062;2023-05-19T05:53:40;102774.50;;;13.72;57.28
17785;BME280;9016;53.582;10.062;2023-05-19T05:56:11;102780.72;;;13.72;57.10
17785;BME280;9016;53.582;10.062;2023-05-19T05:58:39;102779.03;;;13.91;57.02
17785;BME280;9016;53.582;10.062;2023-05-19T06:01:07;102779.78;;;14.15;55.92
17785;BME280;9016;53.582;10.062;2023-05-19T06:03:40;102777.50;;;14.28;55.85
17785;BME280;9016;53.582;10.062;2023-05-19T06:06:08;102782.47;;;14.37;55.40
17785;BME280;9016;53.582;10.062;2023-05-19T06:08:38;102779.00;;;14.35;55.05
17785;BME280;9016;53.582;10.062;2023-05-19T06:11:09;102784.72;;;14.26;54.17
17785;BME280;9016;53.582;10.062;2023-05-19T06:13:37;102782.28;;;14.00;54.75
17785;BME280;9016;53.582;10.062;2023-05-19T06:16:07;102783.34;;;14.16;55.07
17785;BME280;9016;53.582;10.062;2023-05-19T06:18:35;102776.59;;;14.07;54.37
17785;BME280;9016;53.582;10.062;2023-05-19T06:21:03;102781.84;;;13.88;55.40
17785;BME280;9016;53.582;10.062;2023-05-19T06:23:31;102784.69;;;13.84;55.59
17785;BME280;9016;53.582;10.062;2023-05-19T06:26:01;102783.91;;;14.04;55.21
17785;BME280;9016;53.582;10.062;2023-05-19T06:28:29;102789.03;;;14.50;54.14
17785;BME280;9016;53.582;10.062;2023-05-19T06:30:57;102777.69;;;14.63;53.65
17785;BME280;9016;53.582;10.062;2023-05-19T06:33:25;102775.94;;;14.82;53.10
17785;BME280;9016;53.582;10.062;2023-05-19T06:35:55;102785.59;;;14.86;52.26
17785;BME280;9016;53.582;10.062;2023-05-19T06:38:22;102784.81;;;15.40;51.51
17785;BME280;9016;53.582;10.062;2023-05-19T06:40:51;102778.22;;;16.19;50.26
17785;BME280;9016;53.582;10.062;2023-05-19T06:43:20;102776.97;;;16.60;47.19
17785;BME280;9016;53.582;10.062;2023-05-19T06:45:48;102781.25;;;17.12;46.54
17785;BME280;9016;53.582;10.062;2023-05-19T06:48:16;102781.00;;;17.49;45.78
17785;BME280;9016;53.582;10.062;2023-05-19T06:50:44;102777.22;;;17.21;45.96
17785;BME280;9016;53.582;10.062;2023-05-19T06:53:12;102771.00;;;17.51;46.07
17785;BME280;9016;53.582;10.062;2023-05-19T06:55:40;102773.81;;;17.95;44.19
17785;BME280;9016;53.582;10.062;2023-05-19T06:58:25;102775.09;;;18.04;43.46
17785;BME280;9016;53.582;10.062;2023-05-19T07:00:53;102771.53;;;18.76;42.73
17785;BME280;9016;53.582;10.062;2023-05-19T07:03:21;102777.41;;;19.80;40.48
17785;BME280;9016;53.582;10.062;2023-05-19T07:05:49;102774.19;;;21.04;38.00
17785;BME280;9016;53.582;10.062;2023-05-19T07:08:17;102770.25;;;21.56;36.59
17785;BME280;9016;53.582;10.062;2023-05-19T07:10:45;102772.56;;;21.86;36.11
17785;BME280;9016;53.582;10.062;2023-05-19T07:13:13;102765.41;;;21.85;36.73
17785;BME280;9016;53.582;10.062;2023-05-19T07:15:43;102767.53;;;22.16;35.08
17785;BME280;9016;53.582;10.062;2023-05-19T07:18:11;102765.75;;;22.39;34.69
17785;BME280;9016;53.582;10.062;2023-05-19T07:20:39;102763.16;;;23.05;34.52
17785;BME280;9016;53.582;10.062;2023-05-19T07:23:07;102762.66;;;23.33;33.59
17785;BME280;9016;53.582;10.062;2023-05-19T07:25:35;102765.75;;;23.40;33.50
17785;BME280;9016;53.582;10.062;2023-05-19T07:28:03;102764.63;;;23.53;32.50
17785;BME280;9016;53.582;10.062;2023-05-19T07:30:31;102762.28;;;23.27;33.61
17785;BME280;9016;53.582;10.062;2023-05-19T07:33:01;102771.44;;;23.26;32.62
17785;BME280;9016;53.582;10.062;2023-05-19T07:35:29;102767.88;;;24.22;32.14
17785;BME280;9016;53.582;10.062;2023-05-19T07:37:57;102767.13;;;26.10;30.46
17785;BME280;9016;53.582;10.062;2023-05-19T07:40:26;102759.97;;;26.94;29.09
17785;BME280;9016;53.582;10.062;2023-05-19T07:42:54;102771.81;;;26.66;28.71
17785;BME280;9016;53.582;10.062;2023-05-19T07:45:22;102761.31;;;26.61;28.93
17785;BME280;9016;53.582;10.062;2023-05-19T07:47:52;102759.66;;;26.12;29.00
17785;BME280;9016;53.582;10.062;2023-05-19T07:50:21;102765.72;;;25.38;30.45
17785;BME280;9016;53.582;10.062;2023-05-19T07:52:50;102773.56;;;25.01;30.34
17785;BME280;9016;53.582;10.062;2023-05-19T07:55:18;102756.28;;;25.61;29.84
17785;BME280;9016;53.582;10.062;2023-05-19T07:57:48;102765.69;;;26.25;28.31
17785;BME280;9016;53.582;10.062;2023-05-19T08:00:17;102761.34;;;26.42;28.32
17785;BME280;9016;53.582;10.062;2023-05-19T08:02:45;102755.28;;;26.67;28.74
17785;BME280;9016;53.582;10.062;2023-05-19T08:05:13;102750.63;;;27.51;26.85
17785;BME280;9016;53.582;10.062;2023-05-19T08:07:46;102750.41;;;26.52;27.77
17785;BME280;9016;53.582;10.062;2023-05-19T08:10:14;102750.66;;;26.58;27.05
17785;BME280;9016;53.582;10.062;2023-05-19T08:12:42;102756.28;;;25.61;27.88
17785;BME280;9016;53.582;10.062;2023-05-19T08:15:10;102752.56;;;26.58;27.18
17785;BME280;9016;53.582;10.062;2023-05-19T08:17:38;102750.16;;;26.91;27.16
17785;BME280;9016;53.582;10.062;2023-05-19T08:20:07;102750.38;;;27.17;26.85
17785;BME280;9016;53.582;10.062;2023-05-19T08:22:35;102756.47;;;28.35;25.38
17785;BME280;9016;53.582;10.062;2023-05-19T08:25:05;102750.94;;;27.65;25.48
17785;BME280;9016;53.582;10.062;2023-05-19T08:27:34;102748.09;;;27.84;25.87
17785;BME280;9016;53.582;10.062;2023-05-19T08:30:02;102749.81;;;28.20;25.28
17785;BME280;9016;53.582;10.062;2023-05-19T08:32:30;102748.47;;;27.17;25.90
17785;BME280;9016;53.582;10.062;2023-05-19T08:34:58;102746.91;;;27.15;26.22
17785;BME280;9016;53.582;10.062;2023-05-19T08:37:26;102746.25;;;27.03;26.10
17785;BME280;9016;53.582;10.062;2023-05-19T08:39:54;102751.69;;;27.40;25.95
17785;BME280;9016;53.582;10.062;2023-05-19T08:42:24;102739.28;;;28.51;24.77
17785;BME280;9016;53.582;10.062;2023-05-19T08:44:52;102749.91;;;29.05;23.95
17785;BME280;9016;53.582;10.062;2023-05-19T08:47:20;102739.25;;;28.69;24.16
17785;BME280;9016;53.582;10.062;2023-05-19T08:49:51;102740.16;;;28.34;24.36
17785;BME280;9016;53.582;10.062;2023-05-19T08:52:25;102733.63;;;27.20;25.61
17785;BME280;9016;53.582;10.062;2023-05-19T08:55:01;102732.88;;;27.55;25.00
17785;BME280;9016;53.582;10.062;2023-05-19T08:57:33;102728.91;;;27.67;25.51
17785;BME280;9016;53.582;10.062;2023-05-19T09:00:01;102736.09;;;28.38;24.88
17785;BME280;9016;53.582;10.062;2023-05-19T09:02:33;102730.41;;;27.34;25.93
17785;BME280;9016;53.582;10.062;2023-05-19T09:05:03;102714.56;;;27.73;25.53
17785;BME280;9016;53.582;10.062;2023-05-19T09:07:33;102715.47;;;28.52;24.97
17785;BME280;9016;53.582;10.062;2023-05-19T09:10:05;102712.88;;;29.09;23.73
17785;BME280;9016;53.582;10.062;2023-05-19T09:12:35;102716.03;;;28.89;23.84
17785;BME280;9016;53.582;10.062;2023-05-19T09:15:05;102714.78;;;28.75;23.53
17785;BME280;9016;53.582;10.062;2023-05-19T09:17:34;102720.25;;;28.75;23.50
17785;BME280;9016;53.582;10.062;2023-05-19T09:20:03;102721.41;;;27.42;24.46
17785;BME280;9016;53.582;10.062;2023-05-19T09:22:40;102719.50;;;27.52;24.66
17785;BME280;9016;53.582;10.062;2023-05-19T09:25:17;102715.94;;;28.47;24.07
17785;BME280;9016;53.582;10.062;2023-05-19T09:27:47;102712.22;;;27.60;24.63
17785;BME280;9016;53.582;10.062;2023-05-19T09:30:16;102708.97;;;27.20;25.40
17785;BME280;9016;53.582;10.062;2023-05-19T09:32:44;102703.06;;;28.04;24.23
17785;BME280;9016;53.582;10.062;2023-05-19T09:35:13;102705.41;;;27.47;25.08
17785;BME280;9016;53.582;10.062;2023-05-19T09:37:42;102713.34;;;27.40;25.15
17785;BME280;9016;53.582;10.062;2023-05-19T09:40:12;102704.19;;;27.31;25.13
17785;BME280;9016;53.582;10.062;2023-05-19T09:42:41;102703.56;;;27.10;24.92
17785;BME280;9016;53.582;10.062;2023-05-19T09:45:11;102699.03;;;27.19;25.76
17785;BME280;9016;53.582;10.062;2023-05-19T09:47:40;102705.41;;;25.98;26.47
17785;BME280;9016;53.582;10.062;2023-05-19T09:50:10;102719.50;;;24.86;27.56
17785;BME280;9016;53.582;10.062;2023-05-19T09:52:42;102712.28;;;24.13;29.14
17785;BME280;9016;53.582;10.062;2023-05-19T09:55:11;102707.94;;;23.90;29.29
17785;BME280;9016;53.582;10.062;2023-05-19T09:57:41;102701.84;;;23.66;30.38
17785;BME280;9016;53.582;10.062;2023-05-19T10:00:14;102703.84;;;23.64;29.84
17785;BME280;9016;53.582;10.062;2023-05-19T10:02:44;102695.94;;;23.82;30.18
17785;BME280;9016;53.582;10.062;2023-05-19T10:05:14;102700.13;;;23.54;29.71
17785;BME280;9016;53.582;10.062;2023-05-19T10:07:45;102700.03;;;23.44;29.49
17785;BME280;9016;53.582;10.062;2023-05-19T10:10:14;102705.31;;;22.92;30.65
17785;BME280;9016;53.582;10.062;2023-05-19T10:12:42;102698.22;;;23.23;30.42
17785;BME280;9016;53.582;10.062;2023-05-19T10:15:12;102687.72;;;23.29;29.89
17785;BME280;9016;53.582;10.062;2023-05-19T10:17:43;102683.09;;;23.41;29.99
17785;BME280;9016;53.582;10.062;2023-05-19T10:20:13;102685.75;;;23.31;30.04
17785;BME280;9016;53.582;10.062;2023-05-19T10:22:42;102680.38;;;23.41;30.24
17785;BME280;9016;53.582;10.062;2023-05-19T10:25:11;102670.25;;;23.75;30.36
17785;BME280;9016;53.582;10.062;2023-05-19T10:27:44;102668.94;;;23.58;30.10
17785;BME280;9016;53.582;10.062;2023-05-19T10:30:19;102666.25;;;23.79;30.05
17785;BME280;9016;53.582;10.062;2023-05-19T10:32:50;102670.59;;;23.49;30.23
17785;BME280;9016;53.582;10.062;2023-05-19T10:35:46;102662.88;;;23.01;30.21
17785;BME280;9016;53.582;10.062;2023-05-19T10:38:31;102667.31;;;22.35;31.51
17785;BME280;9016;53.582;10.062;2023-05-19T10:41:05;102663.91;;;22.67;31.34
17785;BME280;9016;53.582;10.062;2023-05-19T10:43:43;102656.38;;;22.81;31.09
17785;BME280;9016;53.582;10.062;2023-05-19T10:46:14;102664.84;;;22.99;30.79
17785;BME280;9016;53.582;10.062;2023-05-19T10:48:44;102652.03;;;22.79;31.35
17785;BME280;9016;53.582;10.062;2023-05-19T10:51:13;102655.97;;;22.75;31.56
17785;BME280;9016;53.582;10.062;2023-05-19T10:53:42;102653.50;;;22.83;31.24
17785;BME280;9016;53.582;10.062;2023-05-19T10:56:28;102653.41;;;22.73;30.82
17785;BME280;9016;53.582;10.062;2023-05-19T10:59:00;102654.75;;;22.68;31.17
17785;BME280;9016;53.582;10.062;2023-05-19T11:01:30;102649.38;;;22.11;31.43
17785;BME280;9016;53.582;10.062;2023-05-19T11:04:05;102645.13;;;21.96;31.73
17785;BME280;9016;53.582;10.062;2023-05-19T11:06:35;102643.38;;;21.84;32.27
17785;BME280;9016;53.582;10.062;2023-05-19T11:09:11;102636.31;;;21.81;32.65
17785;BME280;9016;53.582;10.062;2023-05-19T11:11:47;102637.84;;;21.96;32.32
17785;BME280;9016;53.582;10.062;2023-05-19T11:14:17;102632.41;;;21.85;32.74
17785;BME280;9016;53.582;10.062;2023-05-19T11:16:46;102632.94;;;22.12;32.04
17785;BME280;9016;53.582;10.062;2023-05-19T11:19:24;102637.91;;;22.29;31.22
17785;BME280;9016;53.582;10.062;2023-05-19T11:21:54;102636.84;;;21.97;31.59
17785;BME280;9016;53.582;10.062;2023-05-19T11:24:33;102627.88;;;21.73;31.98
17785;BME280;9016;53.582;10.062;2023-05-19T11:27:27;102621.88;;;21.81;32.22
17785;BME280;9016;53.582;10.062;2023-05-19T11:29:58;102627.91;;;21.49;32.52
17785;BME280;9016;53.582;10.062;2023-05-19T11:32:28;102630.63;;;21.49;32.38
17785;BME280;9016;53.582;10.062;2023-05-19T11:34:59;102615.00;;;21.64;32.01
17785;BME280;9016;53.582;10.062;2023-05-19T11:37:31;102617.50;;;21.67;32.91
17785;BME280;9016;53.582;10.062;2023-05-19T11:40:03;102616.25;;;21.36;32.91
17785;BME280;9016;53.582;10.062;2023-05-19T11:42:33;102625.16;;;21.15;32.89
17785;BME280;9016;53.582;10.062;2023-05-19T11:45:02;102615.56;;;21.22;33.10
17785;BME280;9016;53.582;10.062;2023-05-19T11:47:31;102617.81;;;21.51;33.03
17785;BME280;9016;53.582;10.062;2023-05-19T11:50:19;102615.59;;;21.56;31.07
17785;BME280;9016;53.582;10.062;2023-05-19T11:52:47;102616.00;;;21.63;30.88
17785;BME280;9016;53.582;10.062;2023-05-19T11:55:15;102617.22;;;21.59;31.16
17785;BME280;9016;53.582;10.062;2023-05-19T11:57:50;102618.31;;;21.56;31.48
17785;BME280;9016;53.582;10.062;2023-05-19T12:00:30;102609.81;;;21.03;32.51
17785;BME280;9016;53.582;10.062;2023-05-19T12:03:03;102620.41;;;21.29;32.18
17785;BME280;9016;53.582;10.062;2023-05-19T12:05:36;102608.00;;;21.61;31.95
17785;BME280;9016;53.582;10.062;2023-05-19T12:08:09;102610.13;;;21.69;32.11
17785;BME280;9016;53.582;10.062;2023-05-19T12:10:38;102609.59;;;21.64;32.48
17785;BME280;9016;53.582;10.062;2023-05-19T12:13:06;102603.19;;;21.65;31.83
17785;BME280;9016;53.582;10.062;2023-05-19T12:15:36;102606.69;;;21.54;32.14
17785;BME280;9016;53.582;10.062;2023-05-19T12:18:05;102609.78;;;21.50;32.11
17785;BME280;9016;53.582;10.062;2023-05-19T12:20:35;102617.75;;;21.40;32.15
17785;BME280;9016;53.582;10.062;2023-05-19T12:23:03;102610.66;;;20.91;32.32
17785;BME280;9016;53.582;10.062;2023-05-19T12:25:32;102597.63;;;20.96;33.04
17785;BME280;9016;53.582;10.062;2023-05-19T12:28:01;102596.00;;;21.06;33.11
17785;BME280;9016;53.582;10.062;2023-05-19T12:30:30;102590.06;;;21.24;32.08
17785;BME280;9016;53.582;10.062;2023-05-19T12:33:01;102597.56;;;21.44;32.09
17785;BME280;9016;53.582;10.062;2023-05-19T12:35:30;102586.06;;;21.41;32.04
17785;BME280;9016;53.582;10.062;2023-05-19T12:38:03;102581.97;;;21.70;31.89
17785;BME280;9016;53.582;10.062;2023-05-19T12:40:32;102583.03;;;21.56;31.75
17785;BME280;9016;53.582;10.062;2023-05-19T12:43:01;102585.63;;;21.47;31.78
17785;BME280;9016;53.582;10.062;2023-05-19T12:45:33;102587.69;;;21.20;32.21
17785;BME280;9016;53.582;10.062;2023-05-19T12:48:02;102582.28;;;21.20;32.52
17785;BME280;9016;53.582;10.062;2023-05-19T12:50:31;102581.59;;;21.05;32.32
17785;BME280;9016;53.582;10.062;2023-05-19T12:53:01;102584.66;;;21.01;32.49
17785;BME280;9016;53.582;10.062;2023-05-19T12:55:36;102575.63;;;21.24;31.93
17785;BME280;9016;53.582;10.062;2023-05-19T12:58:06;102581.00;;;21.36;31.65
17785;BME280;9016;53.582;10.062;2023-05-19T13:00:39;102575.97;;;21.43;31.76
17785;BME280;9016;53.582;10.062;2023-05-19T13:03:14;102575.94;;;21.78;31.88
17785;BME280;9016;53.582;10.062;2023-05-19T13:05:45;102570.38;;;21.68;31.20
17785;BME280;9016;53.582;10.062;2023-05-19T13:08:15;102567.84;;;21.43;32.33
17785;BME280;9016;53.582;10.062;2023-05-19T13:10:48;102575.00;;;21.55;32.46
17785;BME280;9016;53.582;10.062;2023-05-19T13:13:16;102578.22;;;21.60;32.53
17785;BME280;9016;53.582;10.062;2023-05-19T13:15:45;102566.22;;;21.40;32.27
17785;BME280;9016;53.582;10.062;2023-05-19T13:18:15;102563.16;;;21.45;32.12